createdAt,value
2019-04-05T00:00:34.405Z,9.38
2019-04-05T00:03:06.604Z,9.34
2019-04-05T00:05:37.912Z,9.24
2019-04-05T00:08:10.032Z,9.12
2019-04-05T00:10:41.132Z,9.09
2019-04-05T00:13:13.420Z,8.95
2019-04-05T00:15:46.612Z,8.84
2019-04-05T00:18:18.652Z,8.70
2019-04-05T00:20:50.841Z,8.55
2019-04-05T00:23:22.131Z,8.46
2019-04-05T00:25:54.121Z,8.36
2019-04-05T00:28:25.300Z,8.31
2019-04-05T00:30:57.372Z,8.19
2019-04-05T00:33:29.322Z,8.17
2019-04-05T00:36:01.452Z,8.12
2019-04-05T00:38:33.593Z,8.07
2019-04-05T00:41:05.793Z,8.03
2019-04-05T00:43:36.860Z,7.96
2019-04-05T00:46:08.684Z,7.92
2019-04-05T00:48:40.782Z,7.89
2019-04-05T00:51:13.132Z,7.81
2019-04-05T00:53:45.585Z,7.79
2019-04-05T00:56:17.712Z,7.75
2019-04-05T00:58:49.983Z,7.76
2019-04-05T01:01:21.110Z,7.77
2019-04-05T01:03:52.882Z,7.78
2019-04-05T01:06:25.172Z,7.74
2019-04-05T01:08:56.220Z,7.71
2019-04-05T01:11:28.572Z,7.66
2019-04-05T01:13:59.771Z,7.65
2019-04-05T01:16:31.752Z,7.59
2019-04-05T01:19:04.176Z,7.58
2019-04-05T01:21:40.881Z,7.49
2019-04-05T01:24:13.992Z,7.47
2019-04-05T01:26:47.435Z,7.40
2019-04-05T01:29:21.003Z,7.40
2019-04-05T01:31:53.482Z,7.32
2019-04-05T01:34:25.891Z,7.29
2019-04-05T01:36:58.252Z,7.30
2019-04-05T01:39:31.323Z,7.32
2019-04-05T01:42:03.783Z,7.33
2019-04-05T01:44:38.345Z,7.33
2019-04-05T01:47:10.391Z,7.34
2019-04-05T01:49:42.632Z,7.32
2019-04-05T01:52:13.841Z,7.31
2019-04-05T01:54:45.934Z,7.27
2019-04-05T01:57:17.180Z,7.26
2019-04-05T01:59:49.234Z,7.19
2019-04-05T02:02:21.232Z,7.17
2019-04-05T02:04:53.442Z,7.14
2019-04-05T02:07:24.624Z,7.11
2019-04-05T02:10:00.082Z,7.02
2019-04-05T02:12:32.281Z,6.91
2019-04-05T02:15:05.074Z,6.81
2019-04-05T02:17:38.179Z,6.72
2019-04-05T02:20:09.520Z,6.59
2019-04-05T02:22:41.353Z,6.42
2019-04-05T02:25:13.742Z,6.37
2019-04-05T02:27:44.820Z,6.33
2019-04-05T02:30:17.262Z,6.17
2019-04-05T02:32:49.971Z,6.16
2019-04-05T02:35:22.327Z,6.10
2019-04-05T02:37:53.350Z,6.12
2019-04-05T02:40:26.991Z,6.06
2019-04-05T02:43:01.513Z,6.02
2019-04-05T02:45:36.346Z,5.99
2019-04-05T02:48:11.381Z,5.89
2019-04-05T02:50:46.861Z,5.85
2019-04-05T02:53:20.735Z,5.73
2019-04-05T02:55:53.395Z,5.62
2019-04-05T02:58:26.022Z,5.55
2019-04-05T03:00:59.017Z,5.48
2019-04-05T03:03:31.321Z,5.44
2019-04-05T03:06:04.788Z,5.41
2019-04-05T03:08:37.493Z,5.42
2019-04-05T03:11:13.789Z,5.41
2019-04-05T03:13:51.321Z,5.33
2019-04-05T03:16:40.418Z,5.27
2019-04-05T03:19:07.158Z,5.21
2019-04-05T03:21:43.425Z,5.19
2019-04-05T03:24:19.737Z,5.18
2019-04-05T03:27:07.222Z,5.14
2019-04-05T03:29:39.604Z,5.13
2019-04-05T03:32:12.047Z,5.07
2019-04-05T03:34:45.585Z,5.06
2019-04-05T03:37:18.441Z,5.10
2019-04-05T03:39:50.745Z,5.16
2019-04-05T03:42:22.112Z,5.18
2019-04-05T03:44:54.392Z,5.16
2019-04-05T03:47:26.583Z,5.18
2019-04-05T03:53:29.801Z,5.05
2019-04-05T03:56:00.928Z,5.00
2019-04-05T03:58:32.772Z,4.98
2019-04-05T04:01:04.888Z,4.98
2019-04-05T04:03:37.150Z,5.02
2019-04-05T04:06:09.289Z,5.02
2019-04-05T04:08:40.428Z,4.94
2019-04-05T04:11:12.727Z,4.88
2019-04-05T04:13:44.961Z,4.85
2019-04-05T04:16:17.279Z,4.79
2019-04-05T04:18:48.341Z,4.79
2019-04-05T04:21:51.350Z,4.82
2019-04-05T04:24:23.518Z,4.87
2019-04-05T04:26:55.554Z,4.96
2019-04-05T04:29:26.810Z,5.00
2019-04-05T04:31:58.731Z,5.01
2019-04-05T04:34:29.879Z,5.05
2019-04-05T04:37:02.069Z,5.06
2019-04-05T04:39:34.283Z,5.14
2019-04-05T04:42:07.041Z,5.22
2019-04-05T04:44:39.272Z,5.26
2019-04-05T04:47:25.072Z,5.33
2019-04-05T04:49:45.843Z,5.39
2019-04-05T04:52:18.652Z,5.47
2019-04-05T04:54:50.703Z,5.48
2019-04-05T04:57:22.661Z,5.54
2019-04-05T04:59:54.968Z,5.61
2019-04-05T05:02:26.389Z,5.67
2019-04-05T05:04:58.889Z,5.73
2019-04-05T05:07:31.468Z,5.81
2019-04-05T05:10:03.417Z,5.89
2019-04-05T05:12:36.728Z,5.95
2019-04-05T05:15:07.699Z,6.04
2019-04-05T05:17:39.771Z,6.12
2019-04-05T05:20:10.979Z,6.21
2019-04-05T05:22:43.221Z,6.29
2019-04-05T05:25:15.470Z,6.39
2019-04-05T05:27:47.999Z,6.48
2019-04-05T05:30:20.151Z,6.61
2019-04-05T05:32:52.462Z,6.72
2019-04-05T05:35:24.710Z,6.82
2019-04-05T05:37:55.779Z,6.92
2019-04-05T05:40:35.098Z,7.00
2019-04-05T05:43:04.050Z,7.13
2019-04-05T05:45:35.180Z,7.27
2019-04-05T05:48:07.281Z,7.36
2019-04-05T05:50:39.444Z,7.53
2019-04-05T05:53:11.591Z,7.70
2019-04-05T05:55:42.622Z,7.87
2019-04-05T05:58:14.514Z,8.08
2019-04-05T06:00:47.472Z,8.30
2019-04-05T06:03:19.491Z,8.57
2019-04-05T06:06:03.578Z,8.80
2019-04-05T06:08:25.411Z,9.04
2019-04-05T06:10:56.485Z,9.24
2019-04-05T06:13:28.311Z,9.43
2019-04-05T06:16:00.499Z,9.59
2019-04-05T06:18:31.629Z,9.77
2019-04-05T06:21:03.667Z,9.87
2019-04-05T06:23:35.919Z,10.05
2019-04-05T06:26:06.983Z,10.23
2019-04-05T06:28:39.069Z,10.37
2019-04-05T06:31:11.178Z,10.58
2019-04-05T06:33:43.812Z,10.74
2019-04-05T06:36:15.760Z,10.88
2019-04-05T06:38:48.451Z,10.96
2019-04-05T06:41:20.618Z,11.16
2019-04-05T06:43:51.574Z,11.34
2019-04-05T06:46:23.504Z,11.48
2019-04-05T06:48:54.657Z,11.63
2019-04-05T06:51:26.514Z,11.45
2019-04-05T06:53:59.069Z,11.42
2019-04-05T06:56:31.023Z,11.58
2019-04-05T06:59:03.173Z,11.92
2019-04-05T07:01:35.408Z,12.29
2019-04-05T07:04:06.412Z,12.55
2019-04-05T07:06:38.261Z,12.84
2019-04-05T07:09:10.399Z,13.11
2019-04-05T07:11:41.449Z,13.24
2019-04-05T07:14:14.334Z,13.50
2019-04-05T07:16:45.229Z,13.68
2019-04-05T07:19:17.140Z,13.92
2019-04-05T07:21:48.501Z,14.06
2019-04-05T07:24:20.213Z,14.19
2019-04-05T07:26:52.490Z,14.26
2019-04-05T07:29:23.501Z,14.50
2019-04-05T07:31:55.372Z,14.70
2019-04-05T07:34:27.772Z,14.92
2019-04-05T07:37:00.440Z,15.05
2019-04-05T07:39:32.426Z,15.30
2019-04-05T07:42:04.681Z,15.42
2019-04-05T07:44:35.589Z,15.65
2019-04-05T07:47:07.330Z,15.87
2019-04-05T07:49:39.401Z,16.02
2019-04-05T07:52:13.024Z,16.33
2019-04-05T07:54:45.351Z,16.50
2019-04-05T07:57:16.419Z,16.63
2019-04-05T07:59:48.221Z,16.78
2019-04-05T08:02:20.321Z,16.94
2019-04-05T08:04:54.639Z,17.00
2019-04-05T08:07:29.608Z,17.23
2019-04-05T08:10:03.183Z,17.63
2019-04-05T08:12:35.953Z,17.79
2019-04-05T08:15:09.500Z,18.06
2019-04-05T08:17:41.488Z,18.31
2019-04-05T08:20:13.749Z,18.45
2019-04-05T08:22:44.632Z,18.34
2019-04-05T08:25:16.544Z,18.20
2019-04-05T08:27:48.701Z,18.40
2019-04-05T08:30:19.819Z,18.86
2019-04-05T08:32:51.729Z,18.92
2019-04-05T08:35:23.698Z,19.21
2019-04-05T08:37:55.721Z,19.32
2019-04-05T08:40:27.760Z,19.29
2019-04-05T08:42:59.828Z,19.44
2019-04-05T08:45:31.729Z,19.90
2019-04-05T08:48:03.839Z,20.44
2019-04-05T08:50:35.995Z,20.75
2019-04-05T08:53:09.659Z,20.96
2019-04-05T08:55:40.779Z,21.28
2019-04-05T08:58:12.672Z,21.25
2019-04-05T09:00:44.686Z,21.48
2019-04-05T09:03:16.761Z,21.71
2019-04-05T09:05:49.424Z,21.63
2019-04-05T09:08:21.549Z,21.86
2019-04-05T09:10:54.710Z,22.13
2019-04-05T09:13:26.850Z,22.43
2019-04-05T09:15:57.839Z,22.46
2019-04-05T09:18:29.940Z,22.22
2019-04-05T09:21:02.069Z,22.51
2019-04-05T09:23:33.199Z,22.58
2019-04-05T09:26:05.541Z,22.95
2019-04-05T09:28:37.508Z,23.36
2019-04-05T09:31:09.839Z,23.47
2019-04-05T09:33:41.888Z,23.36
2019-04-05T09:36:13.801Z,23.25
2019-04-05T09:38:45.900Z,23.65
2019-04-05T09:41:16.990Z,23.66
2019-04-05T09:43:49.249Z,23.81
2019-04-05T09:46:21.323Z,23.87
2019-04-05T09:48:53.498Z,23.88
2019-04-05T09:51:25.388Z,23.89
2019-04-05T09:53:57.419Z,24.30
2019-04-05T09:56:28.378Z,24.33
2019-04-05T09:59:00.102Z,24.45
2019-04-05T10:01:32.211Z,24.96
2019-04-05T10:04:04.825Z,25.33
2019-04-05T10:06:36.742Z,25.39
2019-04-05T10:09:09.868Z,25.08
2019-04-05T10:11:41.968Z,25.13
2019-04-05T10:14:14.178Z,25.39
2019-04-05T10:16:46.244Z,25.35
2019-04-05T10:19:18.572Z,25.44
2019-04-05T10:21:50.683Z,25.41
2019-04-05T10:24:22.830Z,25.85
2019-04-05T10:26:54.029Z,25.85
2019-04-05T10:29:26.239Z,25.95
2019-04-05T10:31:57.149Z,25.93
2019-04-05T10:34:29.049Z,26.35
2019-04-05T10:37:01.389Z,26.53
2019-04-05T10:39:32.504Z,26.70
2019-04-05T10:42:04.689Z,27.10
2019-04-05T10:44:36.740Z,26.90
2019-04-05T10:47:08.901Z,26.99
2019-04-05T10:49:40.989Z,26.73
2019-04-05T10:52:13.049Z,26.88
2019-04-05T10:54:45.240Z,26.95
2019-04-05T10:57:16.140Z,26.99
2019-04-05T10:59:48.311Z,27.00
2019-04-05T11:02:20.468Z,27.41
2019-04-05T11:04:51.459Z,27.74
2019-04-05T11:07:23.202Z,27.64
2019-04-05T11:09:54.233Z,27.66
2019-04-05T11:12:26.130Z,27.57
2019-04-05T11:14:58.248Z,27.70
2019-04-05T11:17:30.293Z,27.71
2019-04-05T11:20:06.987Z,27.50
2019-04-05T11:22:36.061Z,27.69
2019-04-05T11:25:08.931Z,27.67
2019-04-05T11:27:41.139Z,27.85
2019-04-05T11:30:15.022Z,27.96
2019-04-05T11:32:47.549Z,27.94
2019-04-05T11:35:19.731Z,27.45
2019-04-05T11:37:54.121Z,27.45
2019-04-05T11:40:25.742Z,27.44
2019-04-05T11:42:59.270Z,27.69
2019-04-05T11:45:33.221Z,27.80
2019-04-05T11:48:06.049Z,28.14
2019-04-05T11:50:38.229Z,28.23
2019-04-05T11:53:10.429Z,28.10
2019-04-05T11:55:42.504Z,28.14
2019-04-05T11:58:14.892Z,27.88
2019-04-05T12:00:51.184Z,27.74
2019-04-05T12:03:23.343Z,27.56
2019-04-05T12:05:55.424Z,27.53
2019-04-05T12:08:28.491Z,27.83
2019-04-05T12:11:01.582Z,28.12
2019-04-05T12:13:33.619Z,28.22
2019-04-05T12:16:07.235Z,28.27
2019-04-05T12:18:39.644Z,28.47
2019-04-05T12:21:10.719Z,28.40
2019-04-05T12:23:43.409Z,28.00
2019-04-05T12:26:15.389Z,28.19
2019-04-05T12:28:47.551Z,28.25
2019-04-05T12:31:20.180Z,28.39
2019-04-05T12:33:52.535Z,28.33
2019-04-05T12:36:24.644Z,28.23
2019-04-05T12:38:56.581Z,28.26
2019-04-05T12:41:27.541Z,28.20
2019-04-05T12:43:59.290Z,27.91
2019-04-05T12:46:31.431Z,27.49
2019-04-05T12:49:06.319Z,27.42
2019-04-05T12:51:37.879Z,27.72
2019-04-05T12:54:10.041Z,27.82
2019-04-05T12:56:42.289Z,28.01
2019-04-05T12:59:14.332Z,28.06
2019-04-05T13:01:46.627Z,27.91
2019-04-05T13:04:20.663Z,28.04
2019-04-05T13:06:53.706Z,28.07
2019-04-05T13:09:25.888Z,28.01
2019-04-05T13:11:58.014Z,28.09
2019-04-05T13:14:30.077Z,28.25
2019-04-05T13:17:02.837Z,28.03
2019-04-05T13:19:36.068Z,28.07
2019-04-05T13:22:08.651Z,28.07
2019-04-05T13:24:40.856Z,27.93
2019-04-05T13:27:13.141Z,27.48
2019-04-05T13:29:45.201Z,27.34
2019-04-05T13:32:19.376Z,27.00
2019-04-05T13:34:51.426Z,27.10
2019-04-05T13:37:23.460Z,27.17
2019-04-05T13:39:55.560Z,26.87
2019-04-05T13:42:31.223Z,26.53
2019-04-05T13:45:01.451Z,26.44
2019-04-05T13:47:37.768Z,26.32
2019-04-05T13:50:11.374Z,26.70
2019-04-05T13:52:43.503Z,26.83
2019-04-05T13:55:15.720Z,26.85
2019-04-05T13:57:47.801Z,26.79
2019-04-05T14:00:23.229Z,26.83
2019-04-05T14:02:58.479Z,26.74
2019-04-05T14:05:30.774Z,26.22
2019-04-05T14:08:10.267Z,25.93
2019-04-05T14:10:36.933Z,25.96
2019-04-05T14:13:09.909Z,26.07
2019-04-05T14:15:43.070Z,25.99
2019-04-05T14:18:15.475Z,25.87
2019-04-05T14:20:50.602Z,26.01
2019-04-05T14:23:25.309Z,25.98
2019-04-05T14:26:03.110Z,25.96
2019-04-05T14:28:35.282Z,25.81
2019-04-05T14:31:07.445Z,25.60
2019-04-05T14:33:39.732Z,25.56
2019-04-05T14:36:13.822Z,25.37
2019-04-05T14:38:46.059Z,25.25
2019-04-05T14:41:44.741Z,24.92
2019-04-05T14:44:22.621Z,24.63
2019-04-05T14:46:55.869Z,24.29
2019-04-05T14:49:30.700Z,24.24
2019-04-05T14:52:02.522Z,24.14
2019-04-05T14:54:34.689Z,24.11
2019-04-05T14:57:07.129Z,24.02
2019-04-05T14:59:39.889Z,23.88
2019-04-05T15:02:13.129Z,23.74
2019-04-05T15:04:49.426Z,23.68
2019-04-05T15:07:21.579Z,23.67
2019-04-05T15:09:55.520Z,23.51
2019-04-05T15:12:29.182Z,23.22
2019-04-05T15:15:01.109Z,22.95
2019-04-05T15:17:47.176Z,22.68
2019-04-05T15:20:11.039Z,22.49
2019-04-05T15:22:44.081Z,22.45
2019-04-05T15:25:17.493Z,22.41
2019-04-05T15:27:55.147Z,22.20
2019-04-05T15:30:26.448Z,21.99
2019-04-05T15:32:59.710Z,21.79
2019-04-05T15:35:31.841Z,21.73
2019-04-05T15:38:04.269Z,21.44
2019-04-05T15:40:36.764Z,21.34
2019-04-05T15:43:09.931Z,21.27
2019-04-05T15:45:46.772Z,21.24
2019-04-05T15:48:20.489Z,21.07
2019-04-05T15:50:55.898Z,20.96
2019-04-05T15:53:26.648Z,20.80
2019-04-05T15:55:59.090Z,20.64
2019-04-05T15:58:34.166Z,20.52
2019-04-05T16:01:06.371Z,20.35
2019-04-05T16:03:38.911Z,20.19
2019-04-05T16:06:11.068Z,19.88
2019-04-05T16:08:42.141Z,19.77
2019-04-05T16:11:13.989Z,19.43
2019-04-05T16:13:45.061Z,19.31
2019-04-05T16:16:17.171Z,19.04
2019-04-05T16:18:49.249Z,18.92
2019-04-05T16:21:20.349Z,18.79
2019-04-05T16:23:52.490Z,18.62
2019-04-05T16:26:24.600Z,18.45
2019-04-05T16:28:55.819Z,18.26
2019-04-05T16:31:28.848Z,18.02
2019-04-05T16:34:01.019Z,17.92
2019-04-05T16:36:32.109Z,17.81
2019-04-05T16:39:06.209Z,17.64
2019-04-05T16:41:40.011Z,17.57
2019-04-05T16:44:11.169Z,17.44
2019-04-05T16:46:43.172Z,17.29
2019-04-05T16:49:15.679Z,17.24
2019-04-05T16:51:47.893Z,17.09
2019-04-05T16:54:19.079Z,16.99
2019-04-05T16:56:51.169Z,16.78
2019-04-05T16:59:24.364Z,16.72
2019-04-05T17:04:17.076Z,16.51
2019-04-05T17:06:48.289Z,16.44
2019-04-05T17:09:20.299Z,16.28
2019-04-05T17:11:52.259Z,16.20
2019-04-05T17:14:40.408Z,16.07
2019-04-05T17:17:12.719Z,15.98
2019-04-05T17:19:49.662Z,15.92
2019-04-05T17:22:21.895Z,15.80
2019-04-05T17:24:54.089Z,15.68
2019-04-05T17:27:26.041Z,15.67
2019-04-05T17:29:58.299Z,15.62
2019-04-05T17:32:31.789Z,15.57
2019-04-05T17:35:04.083Z,15.47
2019-04-05T17:37:36.403Z,15.45
2019-04-05T17:40:09.189Z,15.37
2019-04-05T17:42:42.589Z,15.30
2019-04-05T17:45:14.808Z,15.18
2019-04-05T17:47:45.759Z,15.10
2019-04-05T17:50:29.860Z,14.95
2019-04-05T17:53:12.110Z,14.90
2019-04-05T17:55:38.471Z,14.82
2019-04-05T17:58:10.992Z,14.75
2019-04-05T18:00:44.560Z,14.70
2019-04-05T18:03:17.672Z,14.65
2019-04-05T18:05:50.501Z,14.59
2019-04-05T18:08:22.801Z,14.55
2019-04-05T18:10:55.120Z,14.48
2019-04-05T18:13:26.139Z,14.44
2019-04-05T18:15:58.284Z,14.26
2019-04-05T18:18:29.409Z,14.19
2019-04-05T18:21:03.668Z,14.12
2019-04-05T18:23:35.699Z,14.13
2019-04-05T18:26:07.735Z,14.12
2019-04-05T18:28:39.810Z,14.02
2019-04-05T18:31:11.791Z,14.01
2019-04-05T18:33:44.241Z,13.97
2019-04-05T18:36:16.391Z,13.96
2019-04-05T18:38:49.828Z,13.88
2019-04-05T18:41:22.813Z,13.88
2019-04-05T18:43:55.765Z,13.84
2019-04-05T18:46:27.921Z,13.77
2019-04-05T18:49:06.681Z,13.76
2019-04-05T18:51:38.901Z,13.78
2019-04-05T18:54:09.979Z,13.77
2019-04-05T18:56:41.859Z,13.70
2019-04-05T18:59:13.834Z,13.68
2019-04-05T19:01:46.041Z,13.61
2019-04-05T19:04:17.199Z,13.58
2019-04-05T19:06:49.088Z,13.53
2019-04-05T19:09:21.050Z,13.53
2019-04-05T19:11:53.031Z,13.53
2019-04-05T19:14:25.024Z,13.47
2019-04-05T19:16:59.209Z,13.46
2019-04-05T19:19:30.792Z,13.40
2019-04-05T19:22:01.859Z,13.34
2019-04-05T19:24:33.804Z,13.21
2019-04-05T19:27:06.129Z,13.20
2019-04-05T19:29:37.290Z,13.12
2019-04-05T19:50:12.588Z,12.65
2019-04-05T19:52:44.661Z,12.68
2019-04-05T19:55:17.909Z,12.65
2019-04-05T19:57:50.210Z,12.66
2019-04-05T20:00:22.369Z,12.59
2019-04-05T20:02:54.989Z,12.55
2019-04-05T20:05:27.351Z,12.43
2019-04-05T20:07:58.429Z,12.37
2019-04-05T20:10:30.279Z,12.31
2019-04-05T20:13:02.355Z,12.29
2019-04-05T20:15:34.499Z,12.29
2019-04-05T20:18:06.481Z,12.29
2019-04-05T20:20:38.691Z,12.27
2019-04-05T20:23:09.857Z,12.23
2019-04-05T20:25:42.048Z,12.18
2019-04-05T20:28:15.761Z,12.18
2019-04-05T20:30:48.972Z,12.17
2019-04-05T20:33:21.888Z,12.07
2019-04-05T20:35:54.188Z,11.98
2019-04-05T20:38:25.180Z,11.96
2019-04-05T20:40:57.230Z,11.91
2019-04-05T20:43:29.299Z,11.91
2019-04-05T20:46:01.259Z,11.88
2019-04-05T20:48:34.180Z,11.86
2019-04-05T20:51:06.387Z,11.86
2019-04-05T20:53:38.949Z,11.79
2019-04-05T20:56:11.100Z,11.73
2019-04-05T20:58:42.319Z,11.74
2019-04-05T21:01:14.129Z,11.67
2019-04-05T21:03:46.229Z,11.72
2019-04-05T21:06:18.252Z,11.62
2019-04-05T21:08:50.254Z,11.54
2019-04-05T21:11:22.298Z,11.48
2019-04-05T21:13:54.328Z,11.52
2019-04-05T21:16:26.408Z,11.49
2019-04-05T21:18:58.381Z,11.43
2019-04-05T21:21:30.478Z,11.40
2019-04-05T21:24:02.859Z,11.31
2019-04-05T21:26:35.027Z,11.24
2019-04-05T21:29:07.038Z,11.22
2019-04-05T21:31:39.124Z,11.21
2019-04-05T21:34:10.449Z,11.25
2019-04-05T21:36:42.313Z,11.15
2019-04-05T21:39:14.388Z,11.14
2019-04-05T21:41:46.328Z,11.12
2019-04-05T21:44:17.549Z,11.04
2019-04-05T21:46:49.268Z,10.93
2019-04-05T21:49:21.351Z,10.93
2019-04-05T21:51:53.271Z,10.96
2019-04-05T21:54:25.368Z,10.90
2019-04-05T21:56:57.340Z,10.86
2019-04-05T21:59:29.261Z,10.83
2019-04-05T22:02:01.519Z,10.79
2019-04-05T22:04:32.570Z,10.75
2019-04-05T22:07:04.391Z,10.72
2019-04-05T22:09:36.713Z,10.71
2019-04-05T22:12:08.745Z,10.66
2019-04-05T22:14:40.729Z,10.61
2019-04-05T22:17:12.693Z,10.59
2019-04-05T22:19:44.575Z,10.54
2019-04-05T22:22:16.562Z,10.49
2019-04-05T22:24:58.745Z,10.45
2019-04-05T22:27:23.248Z,10.39
2019-04-05T22:29:55.721Z,10.38
2019-04-05T22:32:27.749Z,10.34
2019-04-05T22:34:59.818Z,10.31
2019-04-05T22:37:32.249Z,10.32
2019-04-05T22:40:04.348Z,10.32
2019-04-05T22:42:36.374Z,10.27
2019-04-05T22:45:08.973Z,10.27
2019-04-05T22:47:40.981Z,10.25
2019-04-05T22:50:13.750Z,10.20
2019-04-05T22:52:46.821Z,10.15
2019-04-05T22:55:19.761Z,10.12
2019-04-05T22:57:51.771Z,10.09
2019-04-05T23:00:23.800Z,10.03
2019-04-05T23:02:55.890Z,9.99
2019-04-05T23:05:28.921Z,9.96
2019-04-05T23:08:00.951Z,9.93
2019-04-05T23:10:32.880Z,9.88
2019-04-05T23:13:04.801Z,9.79
2019-04-05T23:15:36.823Z,9.73
2019-04-05T23:18:08.871Z,9.70
2019-04-05T23:20:40.961Z,9.64
2019-04-05T23:23:13.848Z,9.60
2019-04-05T23:25:45.863Z,9.56
2019-04-05T23:28:17.862Z,9.50
2019-04-05T23:30:50.041Z,9.47
2019-04-05T23:33:21.941Z,9.43
2019-04-05T23:35:53.960Z,9.35
2019-04-05T23:38:26.101Z,9.31
2019-04-05T23:40:58.161Z,9.28
2019-04-05T23:43:30.102Z,9.26
2019-04-05T23:46:02.281Z,9.24
2019-04-05T23:48:34.240Z,9.20
2019-04-05T23:51:06.260Z,9.18
2019-04-05T23:53:38.181Z,9.12
2019-04-05T23:56:10.196Z,9.09
2019-04-05T23:58:42.087Z,9.06
